Time;durP1;ratioP1;P1;durP2;ratioP2;P2;SDS_P1;SDS_P2;PMS_P1;PMS_P2;Temp;Humidity;BMP_temperature;BMP_pressure;BME280_temperature;BME280_humidity;BME280_pressure;Samples;Min_cycle;Max_cycle;Signal;HPM_P1;HPM_P2
2023/12/31 00:00:32;;;;;;;78.85;75.35;;;;;;;10.91;68.10;100287.22;5019530;28;20036;-69
2023/12/31 00:02:58;;;;;;;82.20;78.45;;;;;;;10.91;68.20;100276.41;5022601;28;20029;-70
2023/12/31 00:05:23;;;;;;;81.85;78.25;;;;;;;10.90;68.33;100270.22;5017365;28;20037;-69
2023/12/31 00:07:49;;;;;;;81.70;78.00;;;;;;;10.88;68.20;100258.84;5023036;28;20036;-69
2023/12/31 00:10:14;;;;;;;79.85;76.28;;;;;;;10.88;67.93;100261.53;5032620;28;20045;-69
2023/12/31 00:12:39;;;;;;;79.28;75.68;;;;;;;10.90;68.29;100245.09;5028275;28;20032;-70
2023/12/31 00:15:05;;;;;;;75.55;72.15;;;;;;;10.89;68.07;100225.34;5028439;28;20084;-70
2023/12/31 00:17:30;;;;;;;81.13;77.32;;;;;;;10.89;68.16;100229.94;5030806;28;20046;-69
2023/12/31 00:19:56;;;;;;;83.38;79.57;;;;;;;10.88;67.93;100217.50;5033067;28;20049;-69
2023/12/31 00:22:21;;;;;;;78.93;75.43;;;;;;;10.87;68.02;100224.78;5035281;28;20033;-69
2023/12/31 00:24:51;;;;;;;78.60;75.00;;;;;;;10.87;67.92;100211.28;5028385;28;20167;-71
2023/12/31 00:27:16;;;;;;;79.53;76.03;;;;;;;10.87;68.01;100196.97;5014455;28;20022;-70
2023/12/31 00:29:44;;;;;;;81.88;78.28;;;;;;;10.86;68.30;100204.25;5042329;28;20480;-69
2023/12/31 00:32:09;;;;;;;78.65;75.18;;;;;;;10.86;68.13;100209.66;5022576;28;20350;-69
2023/12/31 00:34:36;;;;;;;77.88;74.43;;;;;;;10.88;67.88;100206.69;5029512;28;20502;-69
2023/12/31 00:37:02;;;;;;;81.63;77.93;;;;;;;10.87;68.27;100196.97;5023476;28;20133;-69
2023/12/31 00:39:27;;;;;;;81.40;77.55;;;;;;;10.87;68.17;100186.16;5015746;28;20033;-70
2023/12/31 00:41:53;;;;;;;78.13;74.55;;;;;;;10.87;68.09;100184.25;5038006;28;20078;-69
2023/12/31 00:44:18;;;;;;;83.93;80.20;;;;;;;10.87;67.95;100168.06;5024581;28;20311;-70
2023/12/31 00:46:43;;;;;;;81.25;77.65;;;;;;;10.88;68.01;100177.78;5029642;28;20048;-69
2023/12/31 00:49:09;;;;;;;80.00;76.40;;;;;;;10.88;67.96;100171.56;5033182;28;20043;-69
2023/12/31 00:51:34;;;;;;;83.20;79.53;;;;;;;10.89;67.91;100178.63;5041311;28;20041;-69
2023/12/31 00:53:59;;;;;;;76.30;72.85;;;;;;;10.87;67.97;100175.34;5019037;28;20424;-69
2023/12/31 00:56:25;;;;;;;80.10;76.60;;;;;;;10.86;67.92;100171.00;5029325;28;20049;-69
2023/12/31 00:58:50;;;;;;;83.93;80.03;;;;;;;10.86;67.98;100173.69;5023731;28;20022;-70
2023/12/31 01:01:16;;;;;;;79.90;75.15;;;;;;;10.85;68.04;100163.97;5022987;28;20354;-69
2023/12/31 01:03:41;;;;;;;75.63;72.28;;;;;;;10.82;67.97;100158.00;5028052;28;20022;-69
2023/12/31 01:06:07;;;;;;;80.78;77.05;;;;;;;10.82;67.99;100146.41;5024659;28;20033;-70
2023/12/31 01:08:32;;;;;;;83.57;79.70;;;;;;;10.82;67.88;100139.09;5016463;28;20045;-68
2023/12/31 01:10:58;;;;;;;83.75;79.95;;;;;;;10.83;67.84;100131.81;5026544;28;20022;-69
2023/12/31 01:13:23;;;;;;;79.78;75.97;;;;;;;10.84;67.90;100128.06;5031821;28;20836;-70
2023/12/31 01:15:49;;;;;;;79.28;75.70;;;;;;;10.83;68.21;100127.25;5023270;28;20033;-70
2023/12/31 01:18:14;;;;;;;71.85;68.55;;;;;;;10.83;67.93;100131.81;5043229;28;20045;-68
2023/12/31 01:20:39;;;;;;;79.93;76.43;;;;;;;10.84;67.90;100119.94;5017753;28;20033;-69
2023/12/31 01:23:05;;;;;;;81.07;77.18;;;;;;;10.83;67.81;100112.91;5033463;28;20124;-69
2023/12/31 01:25:30;;;;;;;80.47;76.88;;;;;;;10.80;67.72;100100.72;5027839;28;20473;-68
2023/12/31 01:27:56;;;;;;;82.18;78.47;;;;;;;10.81;67.93;100109.66;5033001;28;20388;-69
2023/12/31 01:30:24;;;;;;;79.05;75.47;;;;;;;10.81;67.83;100093.44;5021162;28;20038;-69
2023/12/31 01:32:50;;;;;;;79.28;75.57;;;;;;;10.80;67.85;100087.22;5018879;28;20373;-72
2023/12/31 01:35:18;;;;;;;78.55;75.05;;;;;;;10.79;67.66;100079.38;5014491;28;20034;-68
2023/12/31 01:37:43;;;;;;;80.13;76.63;;;;;;;10.79;67.86;100077.50;5043028;28;20039;-69
2023/12/31 01:40:09;;;;;;;82.32;78.53;;;;;;;10.79;67.79;100082.09;5031056;28;20025;-70
2023/12/31 01:42:34;;;;;;;80.35;76.80;;;;;;;10.79;67.86;100066.69;5029323;28;20060;-70
2023/12/31 01:45:02;;;;;;;78.05;74.55;;;;;;;10.77;67.87;100071.53;5032605;28;20361;-68
2023/12/31 01:47:28;;;;;;;80.53;76.93;;;;;;;10.78;67.86;100066.94;5041551;28;20032;-69
2023/12/31 01:49:54;;;;;;;77.40;73.95;;;;;;;10.78;67.72;100062.34;5016414;28;20307;-69
2023/12/31 01:52:19;;;;;;;75.68;72.28;;;;;;;10.79;67.82;100060.47;5023402;28;20026;-68
2023/12/31 01:54:45;;;;;;;82.35;78.57;;;;;;;10.79;67.74;100058.59;5028912;28;20037;-68
2023/12/31 01:57:11;;;;;;;82.22;78.32;;;;;;;10.78;67.61;100053.44;5022872;28;20025;-69
2023/12/31 01:59:38;;;;;;;76.22;72.85;;;;;;;10.77;67.72;100052.63;5027930;28;20030;-69
2023/12/31 02:02:03;;;;;;;78.18;74.57;;;;;;;10.75;67.71;100046.66;5032989;28;20037;-69
2023/12/31 02:04:33;;;;;;;77.05;73.63;;;;;;;10.76;67.60;100052.88;5022542;28;20037;-69
2023/12/31 02:07:00;;;;;;;81.20;77.50;;;;;;;10.74;67.74;100042.34;5018406;28;20113;-69
2023/12/31 02:09:25;;;;;;;79.95;76.40;;;;;;;10.74;67.78;100026.13;5027116;28;20041;-69
2023/12/31 02:11:51;;;;;;;76.90;73.47;;;;;;;10.73;67.81;100029.91;5034339;28;20035;-69
2023/12/31 02:14:16;;;;;;;74.30;71.03;;;;;;;10.74;67.69;100034.25;5035269;28;20045;-69
2023/12/31 02:16:42;;;;;;;74.10;70.82;;;;;;;10.75;67.48;100022.34;5023353;28;20125;-71
2023/12/31 02:19:07;;;;;;;78.70;75.10;;;;;;;10.75;67.63;100010.72;5032058;28;20480;-69
2023/12/31 02:21:33;;;;;;;79.03;75.53;;;;;;;10.75;67.69;99995.34;5039725;28;20032;-69
2023/12/31 02:23:58;;;;;;;76.28;72.90;;;;;;;10.75;67.46;99979.13;5025147;28;20034;-68
2023/12/31 02:26:24;;;;;;;79.97;76.38;;;;;;;10.73;67.55;99978.56;5039800;28;20072;-68
2023/12/31 02:28:50;;;;;;;81.43;77.80;;;;;;;10.74;67.80;99977.50;5025700;28;20064;-68
2023/12/31 02:31:15;;;;;;;83.97;79.88;;;;;;;10.75;67.56;99983.72;5045457;28;20486;-70
2023/12/31 02:33:40;;;;;;;76.80;73.00;;;;;;;10.76;67.75;99974.53;5030610;28;20132;-68
2023/12/31 02:36:06;;;;;;;78.57;74.97;;;;;;;10.76;67.52;99969.13;5023828;28;20082;-69
2023/12/31 02:38:31;;;;;;;79.38;75.88;;;;;;;10.77;67.65;99959.97;5025335;28;20040;-68
2023/12/31 02:40:57;;;;;;;77.13;73.63;;;;;;;10.75;67.64;99957.53;5036161;28;20108;-72
2023/12/31 02:43:23;;;;;;;78.22;74.70;;;;;;;10.75;67.59;99945.91;5015762;28;20034;-68
2023/12/31 02:45:48;;;;;;;81.78;78.15;;;;;;;10.75;67.51;99943.22;5021096;28;20158;-68
2023/12/31 02:48:14;;;;;;;83.00;79.20;;;;;;;10.74;67.60;99936.19;5035352;28;20056;-71
2023/12/31 02:50:39;;;;;;;75.20;71.88;;;;;;;10.72;67.90;99931.03;5032504;28;20037;-69
2023/12/31 02:53:05;;;;;;;79.18;75.60;;;;;;;10.74;67.77;99925.38;5020693;28;20073;-69
2023/12/31 02:55:30;;;;;;;78.97;75.47;;;;;;;10.72;67.47;99914.84;5032986;28;20059;-68
2023/12/31 02:57:55;;;;;;;77.50;74.03;;;;;;;10.74;67.59;99915.38;5024934;28;20076;-68
2023/12/31 03:00:21;;;;;;;82.60;78.93;;;;;;;10.74;67.47;99914.59;5027894;28;20381;-68
2023/12/31 03:02:46;;;;;;;78.13;74.45;;;;;;;10.72;67.51;99904.03;5019345;28;20054;-68
2023/12/31 03:05:12;;;;;;;77.28;73.72;;;;;;;10.71;67.42;99894.31;5029594;28;20369;-69
2023/12/31 03:07:38;;;;;;;79.65;76.00;;;;;;;10.71;67.58;99897.00;5019722;28;20386;-69
2023/12/31 03:10:03;;;;;;;81.93;78.25;;;;;;;10.70;67.53;99881.88;5013388;28;20048;-69
2023/12/31 03:12:29;;;;;;;70.65;67.38;;;;;;;10.70;67.54;99876.47;5030790;28;20112;-71
2023/12/31 03:14:55;;;;;;;79.43;75.88;;;;;;;10.70;67.60;99873.75;5031310;28;20038;-68
2023/12/31 03:17:21;;;;;;;82.47;78.80;;;;;;;10.70;67.67;99857.56;5027450;28;20036;-68
2023/12/31 03:19:47;;;;;;;77.97;74.47;;;;;;;10.70;67.75;99844.06;5019390;28;20080;-68
2023/12/31 03:22:13;;;;;;;79.18;75.35;;;;;;;10.69;67.73;99834.34;5038899;28;20029;-69
2023/12/31 03:24:40;;;;;;;76.90;73.40;;;;;;;10.68;67.59;99835.41;5037333;28;20033;-69
2023/12/31 03:27:06;;;;;;;78.00;74.40;;;;;;;10.68;67.76;99827.28;5020089;28;20026;-69
2023/12/31 03:29:31;;;;;;;76.70;73.32;;;;;;;10.67;67.61;99824.88;5033380;28;20430;-68
2023/12/31 03:31:57;;;;;;;79.65;76.13;;;;;;;10.65;67.43;99822.44;5024601;28;20032;-68
2023/12/31 03:34:22;;;;;;;81.45;77.85;;;;;;;10.65;67.53;99811.63;5036088;28;20056;-69
2023/12/31 03:36:48;;;;;;;76.70;73.25;;;;;;;10.66;67.57;99807.03;5014304;28;20045;-70
2023/12/31 03:39:14;;;;;;;80.05;76.38;;;;;;;10.64;67.54;99801.91;5026533;28;20029;-69
2023/12/31 03:41:40;;;;;;;79.00;75.50;;;;;;;10.65;67.50;99797.31;5018378;28;20112;-69
2023/12/31 03:44:05;;;;;;;82.75;79.05;;;;;;;10.66;67.57;99799.75;5029909;28;20129;-68
2023/12/31 03:46:31;;;;;;;77.30;73.85;;;;;;;10.67;67.45;99792.47;5032274;28;20025;-68
2023/12/31 03:48:56;;;;;;;77.47;74.00;;;;;;;10.66;67.46;99790.81;5026270;28;20041;-68
2023/12/31 03:51:21;;;;;;;78.63;74.97;;;;;;;10.67;67.45;99770.88;5029759;28;20075;-68
2023/12/31 03:53:47;;;;;;;75.10;71.70;;;;;;;10.64;67.67;99769.50;5032260;28;20354;-69
2023/12/31 03:56:12;;;;;;;81.03;77.25;;;;;;;10.65;67.55;99757.63;5033398;28;20373;-69
2023/12/31 03:58:38;;;;;;;74.50;71.10;;;;;;;10.65;67.65;99763.00;5026895;28;20055;-69
2023/12/31 04:01:04;;;;;;;75.82;72.47;;;;;;;10.65;67.58;99749.50;5022447;28;20029;-69
2023/12/31 04:03:29;;;;;;;71.40;68.15;;;;;;;10.66;67.42;99755.72;5029818;28;20029;-68
2023/12/31 04:05:54;;;;;;;81.85;78.25;;;;;;;10.65;67.40;99736.00;5030315;28;20071;-68
2023/12/31 04:08:20;;;;;;;77.70;73.90;;;;;;;10.66;67.57;99734.94;5030046;28;20041;-69
2023/12/31 04:10:45;;;;;;;76.18;72.65;;;;;;;10.64;67.47;99720.91;5017830;28;20156;-69
2023/12/31 04:13:10;;;;;;;78.47;74.88;;;;;;;10.65;67.43;99724.41;5017747;28;20033;-68
2023/12/31 04:15:36;;;;;;;74.50;71.13;;;;;;;10.65;67.58;99725.19;5030226;28;20025;-69
2023/12/31 04:18:02;;;;;;;79.90;75.47;;;;;;;10.66;67.50;99712.50;5041365;28;20029;-69
2023/12/31 04:20:28;;;;;;;71.80;68.55;;;;;;;10.66;67.50;99702.53;5041549;28;20037;-69
2023/12/31 04:22:53;;;;;;;81.68;77.93;;;;;;;10.66;67.53;99707.09;5014669;28;20394;-69
2023/12/31 04:25:19;;;;;;;77.28;73.70;;;;;;;10.63;67.58;99703.06;5034807;28;20021;-69
2023/12/31 04:27:44;;;;;;;80.10;76.53;;;;;;;10.64;67.51;99696.59;5042000;28;20497;-69
2023/12/31 04:30:11;;;;;;;76.05;72.70;;;;;;;10.64;67.58;99688.50;5021412;28;20033;-70
2023/12/31 04:32:36;;;;;;;77.00;73.55;;;;;;;10.65;67.57;99683.91;5014577;28;20108;-69
2023/12/31 04:35:03;;;;;;;76.70;73.10;;;;;;;10.64;67.54;99680.38;5021824;28;20449;-69
2023/12/31 04:37:30;;;;;;;78.00;74.57;;;;;;;10.65;67.59;99676.59;5027001;28;20037;-69
2023/12/31 04:39:55;;;;;;;78.15;74.45;;;;;;;10.66;67.30;99675.53;5019654;28;20033;-70
2023/12/31 04:42:21;;;;;;;80.65;76.13;;;;;;;10.66;67.46;99669.28;5022132;28;20036;-70
2023/12/31 04:44:46;;;;;;;77.30;73.85;;;;;;;10.66;67.45;99667.44;5020806;28;20021;-69
2023/12/31 04:47:12;;;;;;;78.07;74.53;;;;;;;10.66;67.48;99667.44;5029225;28;20032;-69
2023/12/31 04:49:37;;;;;;;78.95;74.22;;;;;;;10.67;67.62;99662.84;5029159;28;20040;-70
2023/12/31 04:52:03;;;;;;;74.38;71.10;;;;;;;10.68;67.45;99649.03;5029150;28;20478;-70
2023/12/31 04:54:28;;;;;;;80.07;76.38;;;;;;;10.65;67.59;99646.88;5030718;28;20029;-69
2023/12/31 04:56:54;;;;;;;74.68;71.32;;;;;;;10.66;67.27;99645.00;5029541;28;20037;-69
2023/12/31 04:59:19;;;;;;;75.75;72.25;;;;;;;10.65;67.49;99637.97;5030828;28;20056;-69
2023/12/31 05:01:49;;;;;;;78.68;75.18;;;;;;;10.65;67.62;99635.28;5030735;28;20034;-69
2023/12/31 05:04:14;;;;;;;78.18;74.68;;;;;;;10.64;67.55;99633.66;5042936;28;20029;-69
2023/12/31 05:06:39;;;;;;;75.40;72.05;;;;;;;10.63;67.52;99624.75;5033649;28;20080;-69
2023/12/31 05:09:08;;;;;;;84.75;80.95;;;;;;;10.64;67.53;99615.56;5022765;28;20497;-70
2023/12/31 05:11:34;;;;;;;81.65;78.00;;;;;;;10.62;67.81;99596.13;5028823;28;20483;-69
2023/12/31 05:13:59;;;;;;;77.75;74.15;;;;;;;10.62;67.65;99590.72;5031047;28;20038;-70
2023/12/31 05:16:26;;;;;;;78.32;74.72;;;;;;;10.62;67.56;99604.22;5027778;28;20037;-69
2023/12/31 05:18:53;;;;;;;78.20;74.72;;;;;;;10.61;67.38;99584.53;5006348;28;20129;-68
2023/12/31 05:21:19;;;;;;;79.50;75.85;;;;;;;10.61;67.30;99581.81;5015237;28;20033;-69
2023/12/31 05:23:45;;;;;;;77.95;74.35;;;;;;;10.61;67.60;99584.53;5008638;28;20249;-68
2023/12/31 05:26:11;;;;;;;81.30;77.60;;;;;;;10.61;67.50;99573.72;5023802;28;20060;-69
2023/12/31 05:28:37;;;;;;;77.25;73.72;;;;;;;10.60;67.32;99571.28;5025107;28;20449;-69
2023/12/31 05:31:02;;;;;;;81.97;78.28;;;;;;;10.60;67.12;99563.19;5027228;28;20061;-68
2023/12/31 05:33:28;;;;;;;77.35;73.85;;;;;;;10.59;67.34;99564.28;5032815;28;20060;-68
2023/12/31 05:35:53;;;;;;;76.50;72.90;;;;;;;10.60;67.25;99555.88;5031327;28;20042;-69
2023/12/31 05:38:18;;;;;;;75.85;72.40;;;;;;;10.59;67.59;99554.28;5038786;28;20041;-69
2023/12/31 05:40:44;;;;;;;81.85;78.15;;;;;;;10.60;67.58;99561.28;5039103;28;20038;-69
2023/12/31 05:43:10;;;;;;;75.35;71.95;;;;;;;10.62;67.72;99550.22;5034349;28;20128;-69
2023/12/31 05:45:36;;;;;;;76.05;72.63;;;;;;;10.63;67.51;99535.63;5035482;28;20362;-69
2023/12/31 05:48:02;;;;;;;77.38;73.95;;;;;;;10.64;67.48;99542.66;5051204;28;20491;-69
2023/12/31 05:50:27;;;;;;;79.10;75.50;;;;;;;10.64;67.70;99556.16;5028215;28;20094;-69
2023/12/31 05:52:53;;;;;;;78.70;75.13;;;;;;;10.64;67.41;99523.75;5033363;28;20477;-69
2023/12/31 05:55:18;;;;;;;75.15;71.60;;;;;;;10.63;67.07;99532.13;5034069;28;20026;-69
2023/12/31 05:57:44;;;;;;;80.85;76.97;;;;;;;10.64;67.59;99531.84;5044361;28;20032;-69
2023/12/31 06:00:10;;;;;;;78.13;74.65;;;;;;;10.63;67.54;99524.81;5031154;28;20038;-69
2023/12/31 06:02:36;;;;;;;87.03;83.03;;;;;;;10.64;67.67;99528.34;5034178;28;20108;-69
2023/12/31 06:05:02;;;;;;;79.75;76.05;;;;;;;10.62;67.54;99517.81;5032389;28;20104;-69
2023/12/31 06:07:27;;;;;;;80.78;77.07;;;;;;;10.62;67.41;99507.00;5040268;28;20029;-69
2023/12/31 06:09:53;;;;;;;78.35;74.88;;;;;;;10.61;67.61;99497.31;5016122;28;20089;-69
2023/12/31 06:12:18;;;;;;;77.90;74.38;;;;;;;10.62;67.57;99504.31;5026733;28;20030;-72
2023/12/31 06:14:44;;;;;;;78.00;74.43;;;;;;;10.62;67.39;99490.81;5024385;28;20052;-69
2023/12/31 06:17:09;;;;;;;79.65;76.15;;;;;;;10.61;67.57;99495.41;5028991;28;20462;-69
2023/12/31 06:19:35;;;;;;;78.18;74.47;;;;;;;10.61;67.71;99489.19;5032375;28;20021;-71
2023/12/31 06:22:00;;;;;;;72.53;69.18;;;;;;;10.62;67.53;99482.72;5031637;28;20025;-71
2023/12/31 06:24:26;;;;;;;78.68;75.07;;;;;;;10.61;67.73;99470.31;5019948;28;20037;-69
2023/12/31 06:26:52;;;;;;;76.18;72.78;;;;;;;10.60;67.48;99465.97;5020674;28;20033;-70
2023/12/31 06:29:18;;;;;;;78.65;75.15;;;;;;;10.60;67.25;99466.75;5019037;28;20034;-68
2023/12/31 06:31:44;;;;;;;76.43;72.95;;;;;;;10.61;67.60;99460.31;5024291;28;20048;-68
2023/12/31 06:34:09;;;;;;;76.78;73.32;;;;;;;10.60;67.37;99458.66;5018116;28;20462;-68
2023/12/31 06:36:35;;;;;;;81.07;77.30;;;;;;;10.61;67.69;99443.28;5015137;28;20041;-70
2023/12/31 06:39:00;;;;;;;78.88;75.28;;;;;;;10.61;67.38;99432.50;5038613;28;20385;-69
2023/12/31 06:41:26;;;;;;;83.63;79.72;;;;;;;10.63;67.60;99430.31;5025334;28;20068;-69
2023/12/31 06:43:51;;;;;;;79.97;76.40;;;;;;;10.63;67.42;99435.72;5027467;28;20469;-68
2023/12/31 06:46:16;;;;;;;75.65;72.18;;;;;;;10.64;67.62;99429.25;5032214;28;20106;-68
2023/12/31 06:48:42;;;;;;;79.63;76.05;;;;;;;10.64;67.28;99437.34;5033040;28;20037;-69
2023/12/31 06:51:07;;;;;;;77.07;73.47;;;;;;;10.65;67.50;99425.44;5018683;28;20445;-69
2023/12/31 06:53:33;;;;;;;81.05;77.35;;;;;;;10.65;67.40;99411.94;5023429;28;20378;-69
2023/12/31 06:56:06;;;;;;;79.03;75.50;;;;;;;10.64;67.28;99410.34;5032560;28;20068;-68
2023/12/31 06:58:33;;;;;;;77.70;73.97;;;;;;;10.65;67.50;99408.44;5029937;28;20061;-68
2023/12/31 07:00:58;;;;;;;78.75;75.15;;;;;;;10.64;67.19;99404.13;5018551;28;20091;-69
2023/12/31 07:03:24;;;;;;;77.68;74.07;;;;;;;10.62;67.61;99404.41;5026762;28;20420;-70
2023/12/31 07:05:50;;;;;;;79.43;75.80;;;;;;;10.61;67.52;99392.78;5031906;28;20108;-68
2023/12/31 07:08:15;;;;;;;83.07;79.38;;;;;;;10.61;67.52;99384.69;5024762;28;20125;-69
2023/12/31 07:10:41;;;;;;;78.53;74.88;;;;;;;10.61;67.60;99384.69;5022173;28;20049;-68
2023/12/31 07:13:06;;;;;;;76.90;73.30;;;;;;;10.61;67.49;99379.28;5031857;28;20124;-69
2023/12/31 07:15:34;;;;;;;80.85;77.13;;;;;;;10.61;67.35;99398.19;5020780;28;20041;-68
2023/12/31 07:18:00;;;;;;;72.73;69.47;;;;;;;10.61;67.36;99384.69;5015850;28;20033;-69
2023/12/31 07:20:25;;;;;;;80.88;77.30;;;;;;;10.62;67.60;99377.41;5018130;28;20052;-71
2023/12/31 07:22:53;;;;;;;79.88;76.32;;;;;;;10.64;67.55;99369.03;5020512;28;20034;-69
2023/12/31 07:25:23;;;;;;;81.90;78.20;;;;;;;10.62;67.54;99366.59;5047013;28;20021;-69
2023/12/31 07:27:48;;;;;;;78.75;75.22;;;;;;;10.61;67.67;99368.50;5025892;28;20507;-69
2023/12/31 07:30:14;;;;;;;78.78;75.18;;;;;;;10.63;67.56;99376.28;5033038;28;20029;-70
2023/12/31 07:32:39;;;;;;;81.47;77.78;;;;;;;10.63;67.57;99367.41;5025711;28;20037;-69
2023/12/31 07:35:05;;;;;;;75.97;72.57;;;;;;;10.64;67.59;99366.31;5042015;28;20037;-69
2023/12/31 07:37:31;;;;;;;78.68;75.00;;;;;;;10.64;67.49;99355.53;5041006;28;20048;-69
2023/12/31 07:39:57;;;;;;;74.70;71.28;;;;;;;10.64;67.79;99352.81;5032484;28;20033;-69
2023/12/31 07:42:23;;;;;;;77.72;74.22;;;;;;;10.63;67.80;99346.59;5027914;28;20033;-69
2023/12/31 07:44:48;;;;;;;78.97;75.47;;;;;;;10.64;67.75;99350.94;5033221;28;20029;-70
2023/12/31 07:47:14;;;;;;;80.53;76.95;;;;;;;10.65;67.72;99352.53;5038205;28;20064;-69
2023/12/31 07:49:39;;;;;;;82.10;78.40;;;;;;;10.65;67.72;99352.53;5030552;28;20288;-69
2023/12/31 07:52:05;;;;;;;79.78;76.07;;;;;;;10.67;67.87;99347.66;5029958;28;20041;-71
2023/12/31 07:54:30;;;;;;;77.00;73.55;;;;;;;10.67;67.72;99349.56;5011650;28;20034;-69
2023/12/31 07:56:56;;;;;;;76.38;72.82;;;;;;;10.66;67.96;99347.94;5025873;28;20115;-69
2023/12/31 07:59:23;;;;;;;80.25;76.70;;;;;;;10.66;68.07;99343.38;5029752;28;20067;-69
2023/12/31 08:01:48;;;;;;;79.13;75.43;;;;;;;10.66;67.94;99348.75;5031353;28;20458;-70
2023/12/31 08:04:14;;;;;;;78.75;75.18;;;;;;;10.67;67.78;99347.66;5020615;28;20029;-70
2023/12/31 08:06:39;;;;;;;76.95;73.40;;;;;;;10.67;67.69;99350.38;5017328;28;20507;-70
2023/12/31 08:09:04;;;;;;;78.82;75.22;;;;;;;10.67;67.99;99341.47;5028545;28;20049;-70
2023/12/31 08:11:30;;;;;;;83.53;79.82;;;;;;;10.66;67.76;99346.06;5033033;28;20042;-70
2023/12/31 08:13:55;;;;;;;75.10;71.68;;;;;;;10.67;67.83;99349.56;5031985;28;20049;-69
2023/12/31 08:16:21;;;;;;;78.97;75.43;;;;;;;10.67;67.86;99338.75;5021201;28;20053;-70
2023/12/31 08:18:46;;;;;;;79.35;75.65;;;;;;;10.68;67.78;99341.16;5024488;28;20037;-70
2023/12/31 08:21:12;;;;;;;75.10;71.70;;;;;;;10.68;67.93;99338.47;5030142;28;20029;-70
2023/12/31 08:23:37;;;;;;;80.15;76.50;;;;;;;10.68;67.91;99338.47;5029474;28;20116;-70
2023/12/31 08:26:03;;;;;;;77.75;74.22;;;;;;;10.70;68.00;99332.81;5022802;28;20033;-71
2023/12/31 08:28:29;;;;;;;80.40;76.75;;;;;;;10.68;67.90;99335.75;5022722;28;20069;-70
2023/12/31 08:30:55;;;;;;;81.03;77.32;;;;;;;10.66;68.11;99321.75;5022229;28;20866;-70
2023/12/31 08:33:21;;;;;;;74.90;71.50;;;;;;;10.64;68.17;99329.31;5012362;28;20030;-72
2023/12/31 08:35:46;;;;;;;83.13;79.38;;;;;;;10.64;68.27;99326.63;5022487;28;20043;-71
2023/12/31 08:38:12;;;;;;;74.45;71.05;;;;;;;10.65;68.30;99328.22;5028385;28;20033;-70
2023/12/31 08:40:37;;;;;;;80.80;77.10;;;;;;;10.65;68.64;99330.13;5018731;28;20033;-70
2023/12/31 08:43:03;;;;;;;81.95;78.28;;;;;;;10.65;68.49;99340.94;5019039;28;20029;-70
2023/12/31 08:45:28;;;;;;;79.68;75.82;;;;;;;10.66;68.36;99340.66;5016742;28;20079;-69
2023/12/31 08:47:54;;;;;;;75.63;72.07;;;;;;;10.65;68.21;99341.72;5050512;28;20026;-70
2023/12/31 08:50:20;;;;;;;78.63;75.13;;;;;;;10.65;68.65;99333.63;5011999;28;20037;-70
2023/12/31 08:52:47;;;;;;;79.70;75.90;;;;;;;10.65;68.38;99346.31;5010242;28;20084;-70
2023/12/31 08:55:13;;;;;;;78.13;74.53;;;;;;;10.65;68.44;99352.53;5011570;28;20512;-70
2023/12/31 08:57:42;;;;;;;82.40;78.68;;;;;;;10.64;68.33;99355.53;5021869;28;20025;-71
2023/12/31 09:00:09;;;;;;;80.57;76.88;;;;;;;10.64;68.37;99353.63;5018826;28;20021;-70
2023/12/31 09:02:34;;;;;;;81.03;77.43;;;;;;;10.66;68.34;99367.66;5029991;28;20030;-70
2023/12/31 09:05:00;;;;;;;79.40;75.78;;;;;;;10.66;68.70;99393.84;5033062;28;20124;-69
2023/12/31 09:07:25;;;;;;;76.63;73.22;;;;;;;10.67;68.35;99407.06;5018168;28;20172;-71
2023/12/31 09:09:51;;;;;;;80.40;76.53;;;;;;;10.69;68.25;99399.50;5018292;28;20125;-72
2023/12/31 09:12:17;;;;;;;77.30;73.57;;;;;;;10.69;68.23;99396.81;5017494;28;20045;-72
2023/12/31 09:14:42;;;;;;;79.57;75.88;;;;;;;10.69;68.39;99401.41;5030948;28;20048;-73
2023/12/31 09:17:08;;;;;;;74.88;71.47;;;;;;;10.67;68.36;99411.69;5030906;28;20029;-72
2023/12/31 09:19:33;;;;;;;74.18;70.88;;;;;;;10.65;68.25;99378.72;5038215;28;20469;-71
2023/12/31 09:21:58;;;;;;;78.63;75.18;;;;;;;10.64;68.50;99394.13;5028287;28;20461;-71
2023/12/31 09:24:24;;;;;;;81.50;77.93;;;;;;;10.65;68.29;99400.34;5012744;28;20096;-70
2023/12/31 09:26:49;;;;;;;78.97;75.38;;;;;;;10.66;68.34;99402.78;5017426;28;20056;-69
2023/12/31 09:29:16;;;;;;;72.88;69.65;;;;;;;10.66;68.36;99410.88;5010724;28;20037;-70
2023/12/31 09:31:42;;;;;;;79.95;76.35;;;;;;;10.67;68.48;99414.38;5020384;28;20041;-71
2023/12/31 09:34:07;;;;;;;75.97;72.57;;;;;;;10.68;68.38;99415.97;5029037;28;20034;-70
2023/12/31 09:36:32;;;;;;;80.13;76.63;;;;;;;10.70;68.31;99416.53;5015602;28;20034;-70
2023/12/31 09:38:58;;;;;;;77.70;74.05;;;;;;;10.72;68.18;99417.06;5016061;28;20029;-69
2023/12/31 09:41:24;;;;;;;79.18;75.65;;;;;;;10.70;68.28;99416.53;5022475;28;20133;-70
2023/12/31 09:43:55;;;;;;;75.95;72.50;;;;;;;10.70;68.28;99421.91;5032292;28;20032;-70
2023/12/31 09:46:22;;;;;;;77.45;74.05;;;;;;;10.70;68.26;99408.41;5029105;28;20053;-69
2023/12/31 09:48:51;;;;;;;79.13;75.53;;;;;;;10.69;68.28;99413.00;5014085;28;20029;-70
2023/12/31 09:51:18;;;;;;;79.07;75.57;;;;;;;10.70;67.91;99408.41;5033005;28;20040;-71
2023/12/31 09:53:46;;;;;;;79.38;75.80;;;;;;;10.70;68.28;99420.03;5027723;28;20074;-71
2023/12/31 09:56:16;;;;;;;78.93;75.40;;;;;;;10.71;68.14;99421.66;5018502;28;20037;-70
2023/12/31 09:58:42;;;;;;;77.55;74.13;;;;;;;10.72;68.48;99420.56;5010763;28;20493;-73
2023/12/31 10:01:07;;;;;;;77.82;74.22;;;;;;;10.74;68.01;99420.28;5016691;28;20048;-70
2023/12/31 10:03:33;;;;;;;77.05;73.65;;;;;;;10.74;68.03;99414.91;5045261;28;20080;-70
2023/12/31 10:05:59;;;;;;;79.57;75.78;;;;;;;10.72;68.28;99417.06;5028446;28;20380;-70
2023/12/31 10:08:25;;;;;;;78.55;74.90;;;;;;;10.70;68.35;99417.31;5028709;28;20672;-70
2023/12/31 10:10:53;;;;;;;80.20;76.50;;;;;;;10.68;68.25;99414.09;5025559;28;20069;-71
2023/12/31 10:13:19;;;;;;;74.40;71.00;;;;;;;10.68;68.02;99411.38;5021872;28;20455;-71
2023/12/31 10:15:45;;;;;;;74.75;71.45;;;;;;;10.69;68.09;99415.72;5027353;28;20044;-70
2023/12/31 10:18:11;;;;;;;79.72;76.10;;;;;;;10.70;68.11;99420.03;5044898;28;20469;-71
2023/12/31 10:20:38;;;;;;;79.15;75.60;;;;;;;10.71;68.07;99420.81;5040921;28;20021;-71
2023/12/31 10:23:04;;;;;;;79.45;75.85;;;;;;;10.70;68.16;99413.81;5031882;28;20041;-71
2023/12/31 10:25:30;;;;;;;77.50;74.05;;;;;;;10.67;68.39;99406.28;5030209;28;20436;-71
2023/12/31 10:27:55;;;;;;;79.53;75.82;;;;;;;10.66;68.15;99408.19;5031691;28;20107;-71
2023/12/31 10:30:22;;;;;;;76.43;73.05;;;;;;;10.70;68.28;99419.22;5024222;28;20053;-70
2023/12/31 10:32:48;;;;;;;77.28;73.82;;;;;;;10.68;68.31;99416.78;5031826;28;20033;-71
2023/12/31 10:35:19;;;;;;;78.57;74.70;;;;;;;10.65;68.21;99406.53;5028340;28;20034;-71
2023/12/31 10:37:44;;;;;;;78.57;75.07;;;;;;;10.64;68.33;99406.84;5032035;28;20037;-70
2023/12/31 10:40:20;;;;;;;75.43;72.03;;;;;;;10.61;68.37;99405.50;5031713;28;20029;-70
2023/12/31 10:42:51;;;;;;;79.63;76.03;;;;;;;10.59;68.37;99413.06;5037379;28;20312;-70
2023/12/31 10:45:18;;;;;;;78.15;74.68;;;;;;;10.57;68.49;99401.72;5026681;28;20038;-70
2023/12/31 10:47:45;;;;;;;74.10;70.78;;;;;;;10.57;68.45;99405.22;5031919;28;20761;-70
2023/12/31 10:50:14;;;;;;;77.50;74.03;;;;;;;10.59;68.43;99410.34;5014138;28;20063;-70
2023/12/31 10:52:42;;;;;;;79.72;76.22;;;;;;;10.59;68.40;99416.56;5023570;28;20433;-70
2023/12/31 10:55:12;;;;;;;78.40;74.90;;;;;;;10.60;68.38;99425.47;5048427;28;20020;-70
2023/12/31 10:57:42;;;;;;;76.32;72.93;;;;;;;10.58;68.53;99457.31;5032554;28;20476;-70
2023/12/31 11:00:09;;;;;;;76.43;73.03;;;;;;;10.58;68.19;99455.47;5022942;28;20262;-71
2023/12/31 11:02:35;;;;;;;77.53;74.03;;;;;;;10.59;68.39;99440.06;5030022;28;20534;-71
2023/12/31 11:05:03;;;;;;;74.35;70.95;;;;;;;10.60;68.40;99450.56;5029494;28;20522;-70
2023/12/31 11:07:29;;;;;;;76.00;72.60;;;;;;;10.59;68.31;99446.25;5023495;28;20045;-71